Time;durP1;ratioP1;P1;durP2;ratioP2;P2;SDS_P1;SDS_P2;PMS_P1;PMS_P2;Temp;Humidity;BMP_temperature;BMP_pressure;BME280_temperature;BME280_humidity;BME280_pressure;Samples;Min_cycle;Max_cycle;Signal;HPM_P1;HPM_P2
2022/04/01 00:00:39;;;;;;;11.95;5.50;;;13.50;99.90;;;;;;5015691;28;20030;-69
2022/04/01 00:03:06;;;;;;;16.20;6.38;;;13.40;99.90;;;;;;5030942;28;20026;-73
2022/04/01 00:05:35;;;;;;;22.23;11.13;;;13.40;99.90;;;;;;5015243;28;20022;-70
2022/04/01 00:08:02;;;;;;;12.20;5.15;;;13.50;99.90;;;;;;5015379;28;20527;-72
2022/04/01 00:10:28;;;;;;;13.77;4.20;;;13.50;99.90;;;;;;5015609;28;20101;-73
2022/04/01 00:12:55;;;;;;;13.45;5.20;;;13.50;99.90;;;;;;5015299;28;20161;-70
2022/04/01 00:15:21;;;;;;;14.63;5.72;;;13.50;99.90;;;;;;5015099;28;20087;-71
2022/04/01 00:17:50;;;;;;;10.25;4.60;;;13.50;99.90;;;;;;5030608;28;20087;-70
2022/04/01 00:20:19;;;;;;;11.85;4.03;;;13.50;99.90;;;;;;5030491;28;20026;-70
2022/04/01 00:22:46;;;;;;;10.38;4.25;;;13.50;99.90;;;;;;5015057;28;20530;-74
2022/04/01 00:25:15;;;;;;;11.98;5.57;;;13.50;99.90;;;;;;5015423;28;20100;-75
2022/04/01 00:27:52;;;;;;;15.05;6.13;;;13.50;99.90;;;;;;5014877;28;20096;-73
2022/04/01 00:30:27;;;;;;;16.30;6.70;;;13.50;99.90;;;;;;4997711;28;20026;-70
2022/04/01 00:32:53;;;;;;;13.27;5.20;;;13.50;99.90;;;;;;5014296;28;20057;-69
2022/04/01 00:35:19;;;;;;;12.98;5.47;;;13.60;99.90;;;;;;5015156;28;20026;-73
2022/04/01 00:37:45;;;;;;;13.95;4.95;;;13.70;99.90;;;;;;5014968;28;20030;-69
2022/04/01 00:40:12;;;;;;;14.20;3.83;;;13.70;99.90;;;;;;5013313;28;20045;-72
2022/04/01 00:42:42;;;;;;;8.75;2.90;;;13.80;99.90;;;;;;5015052;28;20026;-72
2022/04/01 00:45:10;;;;;;;11.00;3.72;;;14.00;99.90;;;;;;5013468;28;20046;-73
2022/04/01 00:47:36;;;;;;;22.90;5.72;;;14.00;99.90;;;;;;5013522;28;20041;-72
2022/04/01 00:50:11;;;;;;;18.92;4.13;;;14.10;99.90;;;;;;5013551;28;20061;-72
2022/04/01 00:52:37;;;;;;;11.68;3.72;;;14.10;99.90;;;;;;5012978;28;20069;-71
2022/04/01 00:55:08;;;;;;;14.07;4.07;;;14.10;99.90;;;;;;5014692;28;20068;-70
2022/04/01 00:57:36;;;;;;;16.80;6.00;;;14.00;99.90;;;;;;5014465;28;20072;-72
2022/04/01 01:00:07;;;;;;;19.23;6.75;;;14.10;99.90;;;;;;5015001;28;20738;-74
2022/04/01 01:02:36;;;;;;;16.98;6.38;;;14.10;99.90;;;;;;5014609;28;20026;-72
2022/04/01 01:05:05;;;;;;;27.73;6.72;;;14.10;99.90;;;;;;5013313;28;20026;-73
2022/04/01 01:07:31;;;;;;;23.67;5.90;;;14.10;99.90;;;;;;5014047;28;20080;-73
2022/04/01 01:09:58;;;;;;;13.60;5.60;;;14.10;99.90;;;;;;5012624;28;20033;-70
2022/04/01 01:12:25;;;;;;;12.30;4.38;;;14.10;99.90;;;;;;5012495;28;20458;-71
2022/04/01 01:14:51;;;;;;;11.48;4.45;;;14.00;99.90;;;;;;5014586;28;20018;-74
2022/04/01 01:17:16;;;;;;;11.48;4.53;;;14.00;99.90;;;;;;5014443;28;20117;-73
2022/04/01 01:19:46;;;;;;;8.95;3.20;;;14.00;99.90;;;;;;5014111;28;20014;-72
2022/04/01 01:22:13;;;;;;;10.32;3.55;;;13.90;99.90;;;;;;5013884;28;20026;-73
2022/04/01 01:24:44;;;;;;;8.90;3.95;;;13.90;99.90;;;;;;5013879;28;20026;-71
2022/04/01 01:27:11;;;;;;;7.78;2.70;;;13.80;99.90;;;;;;5014047;28;20048;-71
2022/04/01 01:29:47;;;;;;;7.38;3.50;;;13.80;99.90;;;;;;5012572;28;20049;-74
2022/04/01 01:32:19;;;;;;;8.38;3.60;;;13.70;99.90;;;;;;5012345;28;20038;-73
2022/04/01 01:34:48;;;;;;;9.32;3.45;;;13.80;99.90;;;;;;5012768;28;20104;-67
2022/04/01 01:37:14;;;;;;;7.22;2.75;;;13.80;99.90;;;;;;5012795;28;20033;-69
2022/04/01 01:39:40;;;;;;;8.02;3.50;;;13.90;99.90;;;;;;5014028;28;20030;-72
2022/04/01 01:42:07;;;;;;;8.18;3.33;;;13.90;99.90;;;;;;5012598;28;20442;-74
2022/04/01 01:44:34;;;;;;;9.63;3.55;;;13.90;99.90;;;;;;5012448;28;20061;-71
2022/04/01 01:47:00;;;;;;;8.15;2.30;;;13.90;99.90;;;;;;5012818;28;20050;-73
2022/04/01 01:49:27;;;;;;;6.55;2.38;;;13.90;99.90;;;;;;5013767;28;20033;-73
2022/04/01 01:54:43;;;;;;;6.88;2.58;;;13.90;99.90;;;;;;5012289;28;20476;-73
2022/04/01 01:57:14;;;;;;;4.40;2.20;;;13.90;99.90;;;;;;5012350;28;20107;-76
2022/04/01 01:59:40;;;;;;;7.30;2.50;;;14.00;99.90;;;;;;5013319;28;20037;-71
2022/04/01 02:02:08;;;;;;;8.50;2.28;;;13.90;99.90;;;;;;5028625;28;20026;-73
2022/04/01 02:04:35;;;;;;;5.55;2.97;;;14.00;99.90;;;;;;4996387;28;20387;-75
2022/04/01 02:07:02;;;;;;;5.03;2.35;;;14.00;99.90;;;;;;5012021;28;20080;-73
2022/04/01 02:09:28;;;;;;;4.47;1.90;;;14.00;99.90;;;;;;5011749;28;20034;-72
2022/04/01 02:11:54;;;;;;;6.47;2.08;;;14.00;99.90;;;;;;5011910;28;20076;-72
2022/04/01 02:14:21;;;;;;;9.23;2.60;;;14.00;99.90;;;;;;5013085;28;20480;-73
2022/04/01 02:16:48;;;;;;;5.35;2.42;;;14.00;99.90;;;;;;4995584;28;20764;-72
2022/04/01 02:19:21;;;;;;;8.20;2.85;;;14.00;99.90;;;;;;5013018;28;20029;-68
2022/04/01 02:21:54;;;;;;;5.38;2.42;;;14.00;99.90;;;;;;5012611;28;20037;-72
2022/04/01 02:24:26;;;;;;;6.28;2.45;;;14.00;99.90;;;;;;4997092;28;20069;-74
2022/04/01 02:26:52;;;;;;;5.05;2.38;;;13.90;99.90;;;;;;5013143;28;20026;-68
2022/04/01 02:29:24;;;;;;;7.78;2.53;;;13.90;99.90;;;;;;4995179;28;20065;-70
2022/04/01 02:32:09;;;;;;;7.88;2.30;;;14.00;99.90;;;;;;5012680;28;20048;-75
2022/04/01 02:34:48;;;;;;;8.40;2.20;;;14.00;99.90;;;;;;5012712;28;20038;-73
2022/04/01 02:37:32;;;;;;;7.95;3.10;;;14.00;99.90;;;;;;5010952;28;20079;-72
2022/04/01 02:40:05;;;;;;;9.02;2.30;;;14.10;99.90;;;;;;5011309;28;20038;-71
2022/04/01 02:42:31;;;;;;;9.30;1.80;;;14.10;99.90;;;;;;5011275;28;20029;-73
2022/04/01 02:44:57;;;;;;;7.45;2.70;;;14.10;99.90;;;;;;5012195;28;20050;-73
2022/04/01 02:47:24;;;;;;;10.13;2.53;;;14.20;99.90;;;;;;5011242;28;20110;-72
2022/04/01 02:49:51;;;;;;;9.07;2.45;;;14.10;99.90;;;;;;5010087;28;20029;-67
2022/04/01 02:52:17;;;;;;;8.38;2.33;;;14.10;99.90;;;;;;5027367;28;20563;-72
2022/04/01 02:54:43;;;;;;;8.00;2.33;;;14.20;99.90;;;;;;5027805;28;20164;-67
2022/04/01 02:57:09;;;;;;;11.15;2.55;;;14.10;99.90;;;;;;5010944;28;20033;-71
2022/04/01 02:59:36;;;;;;;6.15;2.00;;;14.10;99.90;;;;;;5011313;28;20080;-72
2022/04/01 03:02:09;;;;;;;6.10;2.58;;;14.20;99.90;;;;;;5027232;28;20144;-71
2022/04/01 03:04:38;;;;;;;7.55;2.22;;;14.10;99.90;;;;;;5012630;28;20026;-72
2022/04/01 03:07:04;;;;;;;11.40;2.92;;;14.10;99.90;;;;;;4994418;28;20455;-73
2022/04/01 03:09:32;;;;;;;7.90;2.50;;;14.00;99.90;;;;;;5010764;28;20033;-74
2022/04/01 03:12:07;;;;;;;11.65;2.90;;;14.00;99.90;;;;;;4995588;28;20036;-72
2022/04/01 03:14:56;;;;;;;9.90;2.75;;;14.00;99.90;;;;;;5011214;28;20041;-73
2022/04/01 03:17:32;;;;;;;11.25;3.25;;;13.90;99.90;;;;;;4992228;28;20125;-73
2022/04/01 03:20:12;;;;;;;7.50;2.65;;;13.90;99.90;;;;;;5007462;28;20120;-73
2022/04/01 03:22:38;;;;;;;13.05;3.38;;;13.80;99.90;;;;;;4990709;28;20369;-74
2022/04/01 03:25:06;;;;;;;9.82;3.00;;;13.80;99.90;;;;;;4992512;28;20026;-71
2022/04/01 03:27:40;;;;;;;8.27;2.60;;;13.80;99.90;;;;;;4991284;28;20041;-72
2022/04/01 03:30:10;;;;;;;8.82;2.72;;;13.70;99.90;;;;;;5007282;28;20030;-73
2022/04/01 03:32:41;;;;;;;13.88;3.75;;;13.80;99.90;;;;;;5007416;28;20026;-74
2022/04/01 03:35:13;;;;;;;6.80;2.70;;;13.70;99.90;;;;;;5010200;28;20026;-73
2022/04/01 03:37:39;;;;;;;9.00;3.03;;;13.70;99.90;;;;;;5010995;28;20112;-69
2022/04/01 03:40:06;;;;;;;9.57;2.90;;;13.70;99.90;;;;;;5011650;28;20038;-71
2022/04/01 03:42:32;;;;;;;7.40;2.42;;;13.70;99.90;;;;;;5011429;28;20502;-74
2022/04/01 03:45:06;;;;;;;11.65;2.83;;;13.60;99.90;;;;;;4994744;28;20082;-73
2022/04/01 03:48:12;;;;;;;16.75;3.17;;;13.60;99.90;;;;;;4996759;28;20041;-72
2022/04/01 03:50:41;;;;;;;7.10;3.45;;;13.60;99.90;;;;;;5011526;28;20061;-71
2022/04/01 03:53:09;;;;;;;6.88;2.75;;;13.70;99.90;;;;;;4996151;28;20045;-73
2022/04/01 03:55:41;;;;;;;8.07;2.28;;;13.70;99.90;;;;;;5011475;28;20092;-73
2022/04/01 03:58:30;;;;;;;9.52;2.28;;;13.70;99.90;;;;;;4995999;28;20069;-69
2022/04/01 04:01:26;;;;;;;8.70;3.03;;;13.70;99.90;;;;;;4995895;28;20097;-72
2022/04/01 04:03:54;;;;;;;11.95;2.97;;;13.70;99.90;;;;;;4994503;28;20030;-71
2022/04/01 04:06:21;;;;;;;14.60;5.60;;;13.70;99.90;;;;;;4995746;28;20501;-70
2022/04/01 04:08:50;;;;;;;21.38;9.48;;;13.60;99.90;;;;;;5010398;28;20046;-73
2022/04/01 04:11:18;;;;;;;26.20;12.57;;;13.60;99.90;;;;;;5010838;28;20026;-65
2022/04/01 04:13:53;;;;;;;17.67;8.52;;;13.60;99.90;;;;;;5010631;28;20069;-71
2022/04/01 04:16:52;;;;;;;18.80;8.02;;;13.50;99.90;;;;;;5020227;28;20274;-70
2022/04/01 04:19:31;;;;;;;14.27;6.43;;;13.50;99.90;;;;;;5030484;28;20030;-73
2022/04/01 04:22:14;;;;;;;10.38;3.85;;;13.50;99.90;;;;;;5030857;28;20491;-72
2022/04/01 04:24:58;;;;;;;8.43;3.13;;;13.50;99.90;;;;;;5029912;28;20041;-72
2022/04/01 04:27:36;;;;;;;11.35;3.30;;;13.40;99.90;;;;;;5030112;28;20026;-69
2022/04/01 04:30:12;;;;;;;12.45;3.97;;;13.40;99.90;;;;;;5029359;28;20037;-72
2022/04/01 04:33:06;;;;;;;24.40;10.88;;;13.40;99.90;;;;;;5013431;28;20069;-72
2022/04/01 04:35:38;;;;;;;47.15;22.98;;;13.40;99.90;;;;;;5013272;28;20029;-71
2022/04/01 04:38:06;;;;;;;26.23;11.10;;;13.40;99.90;;;;;;5029856;28;20037;-73
2022/04/01 04:40:32;;;;;;;39.97;18.27;;;13.50;99.90;;;;;;5014813;28;20466;-72
2022/04/01 04:43:12;;;;;;;59.97;27.60;;;13.50;99.90;;;;;;5014014;28;20619;-70
2022/04/01 04:45:42;;;;;;;33.95;15.80;;;13.50;99.90;;;;;;5014447;28;20045;-73
2022/04/01 04:48:12;;;;;;;16.80;6.90;;;13.50;99.90;;;;;;5013318;28;20034;-72
2022/04/01 04:50:47;;;;;;;23.30;11.13;;;13.50;99.90;;;;;;5013046;28;20044;-73
2022/04/01 04:53:14;;;;;;;16.45;7.15;;;13.60;99.90;;;;;;5013349;28;20077;-72
2022/04/01 04:55:41;;;;;;;13.35;6.53;;;13.60;99.90;;;;;;5013334;28;20104;-72
2022/04/01 04:58:10;;;;;;;15.10;8.75;;;13.70;99.90;;;;;;5014229;28;20085;-71
2022/04/01 05:00:45;;;;;;;16.10;6.18;;;13.70;99.90;;;;;;5013025;28;20072;-72
2022/04/01 05:03:29;;;;;;;7.32;4.05;;;13.70;99.90;;;;;;5012712;28;20454;-72
2022/04/01 05:05:59;;;;;;;15.35;7.20;;;13.80;99.90;;;;;;5012959;28;20018;-72
2022/04/01 05:08:25;;;;;;;16.45;8.00;;;13.70;99.90;;;;;;5013986;28;20034;-73
2022/04/01 05:11:31;;;;;;;23.23;7.85;;;13.80;99.90;;;;;;5013817;28;20041;-72
2022/04/01 05:14:31;;;;;;;21.48;9.82;;;13.70;99.90;;;;;;4996825;28;20033;-72
2022/04/01 05:17:07;;;;;;;28.52;12.48;;;13.70;99.90;;;;;;4996520;28;20443;-71
2022/04/01 05:19:44;;;;;;;29.73;13.20;;;13.80;99.90;;;;;;5012572;28;20026;-73
2022/04/01 05:22:10;;;;;;;15.05;5.43;;;13.80;99.90;;;;;;5014177;28;20030;-73
2022/04/01 05:25:01;;;;;;;13.88;5.90;;;13.90;99.90;;;;;;5012661;28;20136;-72
2022/04/01 05:27:45;;;;;;;10.98;4.00;;;14.00;99.90;;;;;;5012968;28;20058;-73
2022/04/01 05:30:30;;;;;;;10.07;3.42;;;14.10;99.90;;;;;;4998122;28;20026;-73
2022/04/01 05:33:15;;;;;;;9.63;3.03;;;14.20;99.90;;;;;;5012271;28;20127;-72
2022/04/01 05:35:51;;;;;;;9.40;4.10;;;14.20;99.90;;;;;;5013465;28;20026;-73
2022/04/01 05:38:19;;;;;;;7.50;3.10;;;14.40;99.90;;;;;;5012214;28;20042;-72
2022/04/01 05:40:48;;;;;;;10.38;4.15;;;14.40;99.90;;;;;;5012332;28;20535;-72
2022/04/01 05:43:14;;;;;;;8.32;3.67;;;14.50;99.90;;;;;;5012608;28;20040;-73
2022/04/01 05:45:59;;;;;;;9.73;4.00;;;14.60;99.90;;;;;;5013638;28;20056;-73
2022/04/01 05:48:27;;;;;;;16.63;4.50;;;14.70;99.90;;;;;;5011001;28;20105;-72
2022/04/01 05:50:59;;;;;;;11.05;4.30;;;14.70;99.90;;;;;;5005646;28;20105;-72
2022/04/01 05:53:37;;;;;;;13.43;4.82;;;14.80;99.90;;;;;;5010974;28;20041;-73
2022/04/01 05:56:04;;;;;;;12.45;5.55;;;15.00;99.90;;;;;;5011279;28;20112;-73
2022/04/01 05:58:33;;;;;;;12.57;4.97;;;15.10;99.90;;;;;;5011746;28;20037;-73
2022/04/01 06:00:59;;;;;;;14.85;6.65;;;15.20;99.90;;;;;;5012125;28;20034;-73
2022/04/01 06:03:49;;;;;;;12.50;5.50;;;15.30;99.90;;;;;;5012082;28;20080;-73
2022/04/01 06:06:32;;;;;;;8.30;3.85;;;15.40;99.90;;;;;;5011821;28;20479;-74
2022/04/01 06:09:30;;;;;;;9.20;3.90;;;15.60;99.90;;;;;;4996055;28;20049;-74
2022/04/01 06:12:46;;;;;;;8.25;3.22;;;15.70;99.90;;;;;;5030281;28;20107;-72
2022/04/01 06:15:47;;;;;;;12.20;3.67;;;15.70;99.90;;;;;;5030261;28;20107;-73
2022/04/01 06:18:52;;;;;;;10.48;6.07;;;15.70;99.90;;;;;;5030152;28;20473;-73
2022/04/01 06:21:27;;;;;;;17.60;4.50;;;15.70;99.90;;;;;;5013464;28;20446;-73
2022/04/01 06:24:10;;;;;;;8.43;3.83;;;15.70;99.90;;;;;;5029906;28;20110;-72
2022/04/01 06:26:57;;;;;;;11.38;5.38;;;15.80;99.90;;;;;;5029793;28;20037;-73
2022/04/01 06:29:40;;;;;;;15.68;5.68;;;15.80;99.90;;;;;;5013067;28;20451;-73
2022/04/01 06:32:26;;;;;;;10.00;5.10;;;15.80;99.90;;;;;;5029904;28;20030;-73
2022/04/01 06:35:07;;;;;;;16.45;5.18;;;15.90;99.90;;;;;;5029880;28;20045;-73
2022/04/01 06:37:54;;;;;;;15.20;4.93;;;15.90;99.90;;;;;;5012433;28;20045;-74
2022/04/01 06:40:22;;;;;;;8.82;4.22;;;15.90;99.90;;;;;;5013069;28;20511;-74
2022/04/01 06:42:56;;;;;;;12.13;4.90;;;16.10;99.90;;;;;;5029625;28;20038;-74
2022/04/01 06:46:00;;;;;;;23.65;10.93;;;16.20;99.90;;;;;;4970765;28;20059;-73
2022/04/01 06:48:58;;;;;;;13.98;5.30;;;16.30;99.90;;;;;;4922355;28;20034;-73
2022/04/01 06:52:03;;;;;;;19.13;8.05;;;16.50;99.90;;;;;;4915311;29;20213;-73
2022/04/01 06:54:47;;;;;;;21.27;9.30;;;16.60;99.90;;;;;;4913809;29;20083;-74
2022/04/01 06:57:37;;;;;;;23.17;10.73;;;17.00;99.90;;;;;;4893645;29;20048;-73
2022/04/01 07:00:29;;;;;;;16.35;6.90;;;17.40;99.90;;;;;;4893291;29;20504;-74
2022/04/01 07:02:55;;;;;;;9.00;4.28;;;17.60;99.90;;;;;;4894022;29;20465;-72
2022/04/01 07:05:21;;;;;;;12.95;4.65;;;17.70;99.90;;;;;;4879096;29;20140;-74
2022/04/01 07:07:47;;;;;;;11.60;4.18;;;17.80;99.90;;;;;;4893665;29;20033;-73
2022/04/01 07:10:14;;;;;;;12.70;5.18;;;17.80;99.80;;;;;;4894132;29;20045;-73
2022/04/01 07:12:40;;;;;;;11.35;4.25;;;17.90;99.30;;;;;;4893376;29;20052;-72
2022/04/01 07:15:08;;;;;;;10.23;4.82;;;17.80;98.50;;;;;;4893770;29;20035;-71
2022/04/01 07:17:34;;;;;;;9.23;5.00;;;17.80;97.40;;;;;;4893758;29;20040;-73
2022/04/01 07:20:01;;;;;;;12.80;4.88;;;17.80;97.50;;;;;;4883854;29;20040;-73
2022/04/01 07:22:27;;;;;;;17.48;4.35;;;17.90;98.40;;;;;;4875536;29;20176;-74
2022/04/01 07:24:53;;;;;;;6.07;3.10;;;18.10;97.60;;;;;;4904678;28;20038;-73
2022/04/01 07:27:29;;;;;;;13.02;4.68;;;18.20;97.30;;;;;;4970433;28;20043;-73
2022/04/01 07:30:11;;;;;;;10.95;4.63;;;18.30;96.60;;;;;;4938162;28;20543;-73
2022/04/01 07:32:43;;;;;;;10.57;4.38;;;18.40;95.40;;;;;;4970430;28;20125;-74
2022/04/01 07:35:11;;;;;;;10.40;3.17;;;18.40;94.70;;;;;;5000027;28;20046;-74
2022/04/01 07:37:38;;;;;;;7.45;2.70;;;18.50;96.50;;;;;;5011713;28;20030;-74
2022/04/01 07:40:05;;;;;;;8.40;3.08;;;18.60;95.30;;;;;;5011611;28;20407;-73
2022/04/01 07:42:31;;;;;;;8.45;2.10;;;18.60;93.00;;;;;;5011898;28;20440;-73
2022/04/01 07:44:57;;;;;;;6.72;2.55;;;18.70;91.40;;;;;;5010427;28;20388;-73
2022/04/01 07:47:26;;;;;;;12.27;3.45;;;18.70;90.50;;;;;;5011707;28;20036;-74
2022/04/01 07:49:52;;;;;;;8.20;2.20;;;18.70;90.20;;;;;;5011696;28;20075;-74
2022/04/01 07:52:20;;;;;;;8.25;3.55;;;18.80;89.70;;;;;;5011665;28;20438;-73
2022/04/01 07:54:50;;;;;;;5.80;2.35;;;18.80;87.80;;;;;;5011515;28;20392;-73
2022/04/01 07:57:17;;;;;;;12.45;2.50;;;18.90;87.20;;;;;;5012029;28;20030;-73
2022/04/01 07:59:43;;;;;;;4.95;2.15;;;18.90;84.90;;;;;;5011559;28;20073;-74
2022/04/01 08:02:10;;;;;;;6.20;2.50;;;19.00;84.00;;;;;;5011078;28;20034;-72
2022/04/01 08:04:36;;;;;;;7.68;2.78;;;19.10;83.00;;;;;;5011761;28;20017;-73
2022/04/01 08:07:02;;;;;;;7.70;2.50;;;19.20;82.00;;;;;;5012158;28;20026;-74
2022/04/01 08:09:28;;;;;;;9.32;2.78;;;19.20;80.30;;;;;;5010029;28;20057;-73
2022/04/01 08:11:55;;;;;;;6.20;2.60;;;19.10;79.20;;;;;;5011831;28;20037;-74
2022/04/01 08:14:33;;;;;;;5.78;2.25;;;19.00;79.50;;;;;;5010365;28;20519;-73
2022/04/01 08:17:11;;;;;;;4.28;2.00;;;18.80;79.60;;;;;;5011767;28;20044;-73
2022/04/01 08:19:38;;;;;;;4.22;2.00;;;18.40;85.80;;;;;;5012064;28;20109;-73
2022/04/01 08:22:04;;;;;;;4.32;1.63;;;17.70;91.30;;;;;;5014915;28;20018;-73
2022/04/01 08:24:34;;;;;;;2.83;1.25;;;16.90;99.30;;;;;;5014194;28;20026;-72
2022/04/01 08:27:05;;;;;;;5.60;1.73;;;16.40;99.90;;;;;;5018207;28;20390;-74
2022/04/01 08:29:31;;;;;;;5.22;2.03;;;16.30;99.90;;;;;;5018877;28;20072;-73
2022/04/01 08:31:58;;;;;;;6.75;2.22;;;16.20;99.90;;;;;;4998078;28;20042;-72
2022/04/01 08:34:23;;;;;;;4.30;2.03;;;16.20;99.90;;;;;;5014241;28;20048;-72
2022/04/01 08:36:53;;;;;;;6.25;2.63;;;16.30;99.90;;;;;;5029973;28;20030;-74
2022/04/01 08:39:19;;;;;;;4.80;2.17;;;16.30;99.90;;;;;;5014297;28;20069;-73
2022/04/01 08:41:51;;;;;;;4.18;2.13;;;16.40;99.90;;;;;;5014177;28;20506;-72
2022/04/01 08:44:17;;;;;;;5.20;2.05;;;16.50;99.90;;;;;;5014360;28;20034;-72
2022/04/01 08:46:56;;;;;;;6.43;2.90;;;16.50;99.90;;;;;;5014619;28;20433;-73
2022/04/01 08:49:32;;;;;;;4.07;2.03;;;16.50;99.90;;;;;;5014534;28;20045;-72
2022/04/01 08:52:07;;;;;;;4.05;2.30;;;16.60;99.90;;;;;;5014619;28;20030;-72
2022/04/01 08:54:37;;;;;;;6.93;2.58;;;16.60;99.90;;;;;;5013290;28;20034;-73
2022/04/01 08:57:05;;;;;;;7.45;2.35;;;16.60;99.90;;;;;;5014686;28;20018;-73
2022/04/01 08:59:32;;;;;;;14.10;3.83;;;16.80;99.90;;;;;;5014590;28;20022;-72
2022/04/01 09:02:06;;;;;;;10.95;4.63;;;16.90;99.90;;;;;;5014380;28;20030;-72
2022/04/01 09:04:33;;;;;;;7.75;4.28;;;17.10;99.90;;;;;;5014019;28;20030;-73
2022/04/01 09:07:11;;;;;;;6.90;3.03;;;17.10;99.90;;;;;;4992996;28;20030;-73
2022/04/01 09:09:37;;;;;;;5.25;3.15;;;17.10;99.90;;;;;;4994914;28;20046;-73
2022/04/01 09:12:19;;;;;;;7.72;3.72;;;17.20;99.90;;;;;;5015486;28;20025;-73
2022/04/01 09:14:56;;;;;;;8.23;2.42;;;17.40;99.90;;;;;;5015015;28;20451;-73
2022/04/01 09:17:38;;;;;;;3.17;0.98;;;17.60;96.70;;;;;;5016534;28;20030;-73
2022/04/01 09:20:19;;;;;;;1.45;0.82;;;17.90;89.80;;;;;;5012597;28;20033;-74
2022/04/01 09:22:56;;;;;;;1.88;1.05;;;18.00;88.30;;;;;;5012965;28;20435;-74
2022/04/01 09:25:24;;;;;;;4.68;0.93;;;18.40;88.30;;;;;;5014176;28;20104;-73
2022/04/01 09:27:54;;;;;;;1.33;0.68;;;18.40;84.40;;;;;;5012323;28;20033;-73
2022/04/01 09:30:21;;;;;;;1.77;0.70;;;18.60;80.20;;;;;;5013910;28;20037;-73
2022/04/01 09:32:57;;;;;;;2.42;0.88;;;19.00;83.10;;;;;;5012588;28;20073;-74
2022/04/01 09:35:26;;;;;;;2.40;0.90;;;19.20;78.00;;;;;;5013298;28;20032;-73
2022/04/01 09:38:01;;;;;;;3.58;0.75;;;19.40;77.40;;;;;;5012961;28;20080;-73
2022/04/01 09:40:28;;;;;;;2.22;0.90;;;19.40;76.20;;;;;;5012316;28;20030;-73
2022/04/01 09:42:56;;;;;;;1.55;0.90;;;19.60;76.40;;;;;;5013411;28;20010;-73
2022/04/01 09:45:25;;;;;;;2.88;0.88;;;19.60;75.80;;;;;;5013218;28;20120;-71
2022/04/01 09:48:23;;;;;;;0.95;0.50;;;19.80;76.40;;;;;;5013465;28;20115;-72
2022/04/01 09:50:58;;;;;;;1.00;0.50;;;19.90;76.20;;;;;;5030744;28;20479;-73
2022/04/01 09:53:25;;;;;;;3.65;0.80;;;19.90;73.90;;;;;;5013454;28;20056;-73
2022/04/01 09:55:52;;;;;;;1.90;0.90;;;20.10;74.80;;;;;;5030417;28;20426;-73
2022/04/01 09:58:21;;;;;;;2.45;0.77;;;20.30;75.00;;;;;;5030389;28;20084;-73
2022/04/01 10:00:48;;;;;;;0.90;0.70;;;20.30;73.80;;;;;;5029489;28;20064;-73
2022/04/01 10:03:15;;;;;;;1.20;0.90;;;20.50;72.10;;;;;;5030545;28;20394;-73
2022/04/01 10:05:42;;;;;;;0.77;0.50;;;20.40;71.80;;;;;;5030089;28;20510;-72
2022/04/01 10:08:10;;;;;;;2.58;0.95;;;19.80;71.20;;;;;;5013495;28;20181;-71
2022/04/01 10:10:38;;;;;;;2.90;1.15;;;19.50;72.70;;;;;;5030446;28;20061;-73
2022/04/01 10:13:18;;;;;;;0.77;0.50;;;19.30;70.90;;;;;;5030526;28;20399;-71
2022/04/01 10:15:44;;;;;;;5.18;0.98;;;19.20;72.40;;;;;;5029663;28;20053;-73
2022/04/01 10:18:11;;;;;;;3.42;1.00;;;18.90;71.70;;;;;;5029887;28;20160;-68
2022/04/01 10:20:38;;;;;;;6.60;0.77;;;18.90;72.90;;;;;;5029149;28;20033;-71
2022/04/01 10:23:09;;;;;;;0.82;0.80;;;18.90;73.00;;;;;;5029099;28;20030;-72
2022/04/01 10:25:50;;;;;;;2.67;1.38;;;18.80;73.20;;;;;;5026870;28;20038;-72
2022/04/01 10:28:19;;;;;;;4.00;1.80;;;18.80;73.30;;;;;;5011494;28;20441;-73
2022/04/01 10:30:56;;;;;;;5.32;1.33;;;18.90;73.80;;;;;;5010550;28;20048;-72
2022/04/01 10:33:33;;;;;;;3.83;1.38;;;19.00;74.20;;;;;;5011702;28;20088;-73
2022/04/01 10:35:59;;;;;;;6.57;1.02;;;19.30;74.30;;;;;;5011488;28;20152;-73
2022/04/01 10:38:31;;;;;;;2.00;1.00;;;19.30;72.80;;;;;;5011693;28;20022;-71
2022/04/01 10:41:12;;;;;;;1.73;0.90;;;19.50;72.70;;;;;;5012186;28;20022;-73
2022/04/01 10:43:41;;;;;;;2.07;1.17;;;19.60;71.70;;;;;;4994655;28;20041;-72
2022/04/01 10:46:15;;;;;;;7.85;2.20;;;19.60;70.80;;;;;;5012493;28;20476;-73
2022/04/01 10:52:11;;;;;;;3.17;1.38;;;19.90;72.90;;;;;;5009702;28;20042;-73
2022/04/01 10:54:43;;;;;;;4.75;1.63;;;19.80;70.90;;;;;;5009904;28;20125;-73
2022/04/01 10:57:11;;;;;;;3.72;1.05;;;19.50;70.10;;;;;;5009953;28;20038;-73
2022/04/01 10:59:46;;;;;;;2.83;1.33;;;19.50;69.70;;;;;;4992942;28;20022;-69
2022/04/01 11:02:18;;;;;;;2.17;1.08;;;19.40;69.70;;;;;;5009028;28;20038;-72
2022/04/01 11:04:48;;;;;;;5.60;0.95;;;19.60;71.50;;;;;;5009753;28;20033;-73
2022/04/01 11:07:23;;;;;;;7.07;2.05;;;19.70;70.40;;;;;;5009655;28;20032;-73
2022/04/01 11:09:52;;;;;;;2.78;1.40;;;19.70;69.80;;;;;;5009796;28;20041;-71
2022/04/01 11:12:19;;;;;;;1.88;1.13;;;19.80;71.80;;;;;;5009426;28;20045;-71
2022/04/01 11:15:09;;;;;;;2.53;1.42;;;20.00;71.60;;;;;;5009621;28;20038;-73
2022/04/01 11:17:41;;;;;;;7.40;1.83;;;20.00;69.20;;;;;;5009902;28;20065;-71
2022/04/01 11:20:18;;;;;;;6.20;1.50;;;19.60;68.90;;;;;;5009724;28;20144;-71
2022/04/01 11:22:53;;;;;;;5.90;2.08;;;19.50;68.30;;;;;;5009276;28;20053;-72
2022/04/01 11:25:22;;;;;;;2.40;1.00;;;19.60;69.80;;;;;;5009864;28;20155;-70
2022/04/01 11:27:57;;;;;;;2.58;1.23;;;19.60;69.70;;;;;;5009555;28;20029;-71
2022/04/01 11:30:25;;;;;;;2.08;1.00;;;19.80;68.10;;;;;;5011890;28;20456;-74
2022/04/01 11:32:56;;;;;;;3.13;1.00;;;19.80;68.80;;;;;;5011639;28;20539;-71
2022/04/01 11:35:25;;;;;;;3.90;1.42;;;19.70;68.00;;;;;;5011507;28;20026;-70
2022/04/01 11:37:53;;;;;;;6.47;1.38;;;19.60;68.20;;;;;;5011533;28;20526;-71
2022/04/01 11:40:22;;;;;;;3.60;1.50;;;19.60;68.60;;;;;;5010565;28;20438;-72
2022/04/01 11:43:06;;;;;;;4.03;1.20;;;19.50;69.60;;;;;;5020375;28;20029;-72
2022/04/01 11:45:47;;;;;;;5.32;1.90;;;19.60;69.70;;;;;;5023281;28;20517;-71
2022/04/01 11:48:19;;;;;;;4.53;1.90;;;19.50;70.70;;;;;;4997570;28;20045;-71
2022/04/01 11:50:47;;;;;;;4.38;1.83;;;19.70;71.60;;;;;;5013401;28;20030;-71
2022/04/01 11:53:22;;;;;;;4.63;1.70;;;19.90;69.50;;;;;;5011575;28;20069;-72
2022/04/01 11:55:48;;;;;;;4.35;1.08;;;20.10;69.80;;;;;;5014023;28;20041;-73
2022/04/01 11:58:14;;;;;;;3.90;1.38;;;20.10;68.50;;;;;;5015700;28;20504;-72
2022/04/01 12:00:40;;;;;;;8.05;1.42;;;20.30;70.10;;;;;;5014468;28;20226;-71
2022/04/01 12:03:08;;;;;;;3.17;1.65;;;20.30;70.20;;;;;;5015718;28;20475;-72
2022/04/01 12:05:34;;;;;;;4.03;1.42;;;20.40;68.70;;;;;;5015842;28;20030;-72
2022/04/01 12:10:56;;;;;;;2.75;1.65;;;20.10;70.50;;;;;;5015457;28;20030;-71
2022/04/01 12:13:25;;;;;;;4.28;1.65;;;19.80;68.40;;;;;;5013871;28;20128;-71
2022/04/01 12:15:52;;;;;;;3.70;1.67;;;19.50;67.90;;;;;;5013883;28;20025;-72
2022/04/01 12:18:20;;;;;;;8.23;1.45;;;19.60;68.90;;;;;;5015209;28;20029;-70
2022/04/01 12:20:57;;;;;;;5.55;1.50;;;19.50;68.30;;;;;;5014149;28;20033;-71
2022/04/01 12:23:32;;;;;;;5.30;1.55;;;19.30;68.00;;;;;;5013999;28;20038;-71
2022/04/01 12:26:00;;;;;;;3.25;1.30;;;19.30;67.60;;;;;;5015104;28;20033;-72
2022/04/01 12:28:37;;;;;;;4.75;1.27;;;19.40;68.70;;;;;;5015509;28;20029;-70
2022/04/01 12:31:03;;;;;;;3.72;1.20;;;19.40;68.80;;;;;;5014910;28;20113;-73
2022/04/01 12:33:33;;;;;;;4.88;1.75;;;19.40;68.10;;;;;;5015349;28;20037;-70
2022/04/01 12:35:59;;;;;;;3.53;0.88;;;19.40;66.80;;;;;;5015103;28;20467;-72
2022/04/01 12:38:27;;;;;;;3.33;1.25;;;19.40;66.70;;;;;;5013537;28;20069;-72
2022/04/01 12:41:02;;;;;;;4.68;1.73;;;19.60;68.50;;;;;;5014650;28;20040;-73
2022/04/01 12:43:31;;;;;;;5.22;1.73;;;19.80;70.00;;;;;;5014483;28;20036;-70
2022/04/01 12:46:02;;;;;;;6.65;1.85;;;19.80;68.20;;;;;;5013858;28;20046;-72
2022/04/01 12:48:28;;;;;;;3.25;1.50;;;20.00;69.40;;;;;;5014736;28;20104;-73
2022/04/01 12:51:02;;;;;;;1.77;0.88;;;20.00;68.40;;;;;;5014654;28;20576;-73
2022/04/01 12:53:31;;;;;;;3.28;1.25;;;19.90;67.00;;;;;;5014324;28;20045;-71
2022/04/01 12:56:21;;;;;;;4.47;1.50;;;19.90;67.40;;;;;;5014683;28;20026;-72
2022/04/01 12:58:57;;;;;;;2.72;1.13;;;19.80;68.80;;;;;;5013415;28;20033;-72
2022/04/01 13:01:25;;;;;;;6.47;1.70;;;19.90;67.60;;;;;;5013558;28;20048;-73
2022/04/01 13:03:53;;;;;;;7.45;2.28;;;19.90;68.50;;;;;;5013279;28;20030;-72
2022/04/01 13:06:23;;;;;;;3.17;1.38;;;19.90;69.20;;;;;;5014137;28;20026;-72
2022/04/01 13:08:58;;;;;;;1.80;1.25;;;19.60;65.80;;;;;;5013633;28;20069;-72
2022/04/01 13:11:36;;;;;;;5.07;1.25;;;19.40;65.60;;;;;;5013831;28;20026;-73
2022/04/01 13:14:04;;;;;;;3.42;0.95;;;19.50;65.50;;;;;;5013849;28;20496;-71
2022/04/01 13:16:38;;;;;;;5.72;1.48;;;19.40;65.60;;;;;;5013645;28;20244;-72
2022/04/01 13:19:26;;;;;;;6.82;1.33;;;19.40;65.20;;;;;;5012714;28;20440;-72